createdAt,value
2022-09-15T00:00:55.870Z,100.00
2022-09-15T00:03:25.136Z,100.00
2022-09-15T00:05:54.785Z,100.00
2022-09-15T00:08:23.386Z,100.00
2022-09-15T00:10:53.050Z,100.00
2022-09-15T00:13:22.323Z,100.00
2022-09-15T00:15:52.730Z,100.00
2022-09-15T00:18:21.697Z,100.00
2022-09-15T00:20:49.843Z,100.00
2022-09-15T00:23:18.947Z,100.00
2022-09-15T00:25:51.197Z,100.00
2022-09-15T00:28:21.602Z,100.00
2022-09-15T00:30:54.022Z,100.00
2022-09-15T00:33:24.603Z,100.00
2022-09-15T00:35:54.907Z,100.00
2022-09-15T00:38:23.199Z,100.00
2022-09-15T00:40:53.149Z,100.00
2022-09-15T00:43:23.270Z,100.00
2022-09-15T00:45:53.707Z,100.00
2022-09-15T00:48:23.643Z,100.00
2022-09-15T00:50:56.797Z,100.00
2022-09-15T00:53:27.607Z,100.00
2022-09-15T00:55:56.842Z,100.00
2022-09-15T00:58:30.462Z,100.00
2022-09-15T01:01:03.934Z,100.00
2022-09-15T01:03:34.333Z,100.00
2022-09-15T01:06:09.121Z,100.00
2022-09-15T01:08:53.246Z,100.00
2022-09-15T01:11:21.800Z,100.00
2022-09-15T01:13:49.900Z,100.00
2022-09-15T01:16:27.115Z,100.00
2022-09-15T01:19:03.223Z,100.00
2022-09-15T01:21:40.141Z,100.00
2022-09-15T01:24:39.876Z,100.00
2022-09-15T01:27:42.177Z,100.00
2022-09-15T01:30:14.658Z,100.00
2022-09-15T01:33:06.737Z,100.00
2022-09-15T01:35:45.290Z,100.00
2022-09-15T01:38:21.931Z,100.00
2022-09-15T01:40:56.835Z,100.00
2022-09-15T01:43:27.639Z,100.00
2022-09-15T01:45:58.466Z,100.00
2022-09-15T01:48:28.599Z,100.00
2022-09-15T01:51:01.464Z,100.00
2022-09-15T01:53:30.210Z,100.00
2022-09-15T01:56:02.324Z,100.00
2022-09-15T01:58:30.236Z,100.00
2022-09-15T02:01:04.985Z,100.00
2022-09-15T02:03:38.317Z,100.00
2022-09-15T02:06:13.257Z,100.00
2022-09-15T02:08:47.587Z,100.00
2022-09-15T02:11:18.225Z,100.00
2022-09-15T02:13:54.215Z,100.00
2022-09-15T02:16:26.426Z,100.00
2022-09-15T02:19:04.346Z,100.00
2022-09-15T02:21:40.725Z,100.00
2022-09-15T02:24:14.116Z,100.00
2022-09-15T02:26:43.879Z,100.00
2022-09-15T02:29:16.237Z,100.00
2022-09-15T02:31:47.266Z,100.00
2022-09-15T02:34:19.553Z,100.00
2022-09-15T02:36:49.223Z,100.00
2022-09-15T02:39:21.604Z,100.00
2022-09-15T02:41:49.929Z,100.00
2022-09-15T02:44:17.687Z,100.00
2022-09-15T02:46:47.033Z,100.00
2022-09-15T02:49:14.892Z,100.00
2022-09-15T02:51:42.735Z,100.00
2022-09-15T02:54:10.667Z,100.00
2022-09-15T02:56:38.404Z,100.00
2022-09-15T02:59:06.204Z,100.00
2022-09-15T03:01:34.725Z,100.00
2022-09-15T03:04:05.555Z,100.00
2022-09-15T03:06:36.186Z,100.00
2022-09-15T03:09:06.850Z,100.00
2022-09-15T03:11:35.670Z,100.00
2022-09-15T03:14:05.791Z,100.00
2022-09-15T03:16:35.939Z,100.00
2022-09-15T03:19:05.727Z,100.00
2022-09-15T03:21:33.525Z,100.00
2022-09-15T03:24:01.356Z,100.00
2022-09-15T03:26:29.303Z,100.00
2022-09-15T03:28:57.047Z,100.00
2022-09-15T03:31:24.921Z,100.00
2022-09-15T03:33:54.736Z,100.00
2022-09-15T03:36:24.131Z,100.00
2022-09-15T03:38:52.742Z,100.00
2022-09-15T03:41:20.660Z,100.00
2022-09-15T03:43:48.374Z,100.00
2022-09-15T03:46:16.327Z,100.00
2022-09-15T03:48:44.116Z,100.00
2022-09-15T03:51:12.833Z,100.00
2022-09-15T03:53:42.991Z,100.00
2022-09-15T03:56:13.737Z,100.00
2022-09-15T03:58:41.733Z,100.00
2022-09-15T04:01:09.694Z,100.00
2022-09-15T04:03:44.136Z,100.00
2022-09-15T04:06:15.146Z,100.00
2022-09-15T04:08:44.689Z,100.00
2022-09-15T04:11:13.975Z,100.00
2022-09-15T04:13:43.194Z,100.00
2022-09-15T04:16:13.868Z,100.00
2022-09-15T04:18:42.070Z,100.00
2022-09-15T04:21:13.282Z,100.00
2022-09-15T04:23:41.305Z,100.00
2022-09-15T04:26:15.462Z,100.00
2022-09-15T04:28:43.280Z,100.00
2022-09-15T04:31:13.468Z,100.00
2022-09-15T04:33:42.965Z,100.00
2022-09-15T04:36:12.588Z,100.00
2022-09-15T04:38:40.437Z,100.00
2022-09-15T04:41:08.335Z,100.00
2022-09-15T04:43:38.021Z,100.00
2022-09-15T04:46:06.254Z,100.00
2022-09-15T04:48:34.142Z,100.00
2022-09-15T04:51:03.038Z,100.00
2022-09-15T04:53:31.169Z,100.00
2022-09-15T04:56:05.856Z,100.00
2022-09-15T04:58:40.096Z,100.00
2022-09-15T05:01:08.930Z,100.00
2022-09-15T05:03:37.578Z,100.00
2022-09-15T05:06:06.854Z,100.00
2022-09-15T05:08:34.648Z,100.00
2022-09-15T05:11:03.186Z,100.00
2022-09-15T05:13:30.969Z,100.00
2022-09-15T05:16:05.399Z,100.00
2022-09-15T05:18:33.299Z,100.00
2022-09-15T05:21:01.889Z,100.00
2022-09-15T05:23:30.143Z,100.00
2022-09-15T05:25:58.131Z,100.00
2022-09-15T05:28:26.006Z,100.00
2022-09-15T05:30:54.287Z,100.00
2022-09-15T05:33:24.865Z,100.00
2022-09-15T05:35:53.370Z,100.00
2022-09-15T05:38:21.215Z,100.00
2022-09-15T05:40:49.337Z,100.00
2022-09-15T05:43:17.950Z,100.00
2022-09-15T05:45:46.119Z,100.00
2022-09-15T05:48:14.161Z,100.00
2022-09-15T05:50:50.627Z,100.00
2022-09-15T05:53:18.516Z,100.00
2022-09-15T05:55:46.420Z,100.00
2022-09-15T05:58:15.113Z,100.00
2022-09-15T06:00:43.230Z,100.00
2022-09-15T06:03:16.039Z,100.00
2022-09-15T06:05:45.272Z,100.00
2022-09-15T06:08:13.640Z,100.00
2022-09-15T06:10:41.918Z,100.00
2022-09-15T06:13:09.675Z,100.00
2022-09-15T06:15:37.506Z,100.00
2022-09-15T06:18:05.562Z,100.00
2022-09-15T06:20:33.309Z,100.00
2022-09-15T06:23:02.890Z,100.00
2022-09-15T06:25:30.753Z,100.00
2022-09-15T06:27:58.542Z,100.00
2022-09-15T06:30:26.475Z,100.00
2022-09-15T06:32:54.760Z,100.00
2022-09-15T06:35:22.674Z,100.00
2022-09-15T06:37:51.736Z,100.00
2022-09-15T06:40:21.723Z,100.00
2022-09-15T06:42:49.631Z,100.00
2022-09-15T06:45:17.801Z,100.00
2022-09-15T06:47:45.700Z,100.00
2022-09-15T06:50:13.846Z,100.00
2022-09-15T06:52:43.587Z,100.00
2022-09-15T06:55:11.451Z,100.00
2022-09-15T06:57:40.872Z,100.00
2022-09-15T07:00:10.320Z,100.00
2022-09-15T07:02:38.588Z,100.00
2022-09-15T07:05:07.140Z,100.00
2022-09-15T07:07:35.159Z,100.00
2022-09-15T07:10:02.990Z,100.00
2022-09-15T07:12:32.564Z,100.00
2022-09-15T07:15:01.895Z,100.00
2022-09-15T07:17:30.338Z,100.00
2022-09-15T07:19:58.230Z,100.00
2022-09-15T07:22:26.384Z,100.00
2022-09-15T07:24:54.406Z,100.00
2022-09-15T07:27:26.853Z,100.00
2022-09-15T07:29:54.990Z,100.00
2022-09-15T07:32:24.329Z,100.00
2022-09-15T07:34:56.477Z,100.00
2022-09-15T07:37:26.198Z,100.00
2022-09-15T07:39:54.293Z,100.00
2022-09-15T07:42:22.321Z,100.00
2022-09-15T07:44:50.145Z,100.00
2022-09-15T07:47:18.133Z,100.00
2022-09-15T07:49:47.380Z,100.00
2022-09-15T07:52:15.216Z,100.00
2022-09-15T07:54:43.183Z,100.00
2022-09-15T07:57:11.080Z,100.00
2022-09-15T07:59:41.216Z,100.00
2022-09-15T08:02:19.388Z,100.00
2022-09-15T08:04:48.743Z,100.00
2022-09-15T08:07:16.610Z,100.00
2022-09-15T08:09:44.458Z,100.00
2022-09-15T08:12:12.285Z,100.00
2022-09-15T08:14:40.215Z,100.00
2022-09-15T08:17:11.405Z,100.00
2022-09-15T08:19:39.712Z,100.00
2022-09-15T08:22:08.916Z,100.00
2022-09-15T08:24:37.391Z,100.00
2022-09-15T08:27:05.386Z,100.00
2022-09-15T08:29:33.223Z,100.00
2022-09-15T08:32:01.088Z,100.00
2022-09-15T08:34:29.734Z,100.00
2022-09-15T08:36:58.207Z,100.00
2022-09-15T08:39:27.599Z,100.00
2022-09-15T08:41:56.474Z,100.00
2022-09-15T08:44:34.467Z,100.00
2022-09-15T08:47:07.920Z,100.00
2022-09-15T08:49:51.496Z,100.00
2022-09-15T08:52:23.890Z,100.00
2022-09-15T08:54:55.274Z,100.00
2022-09-15T08:57:25.910Z,100.00
2022-09-15T08:59:55.038Z,100.00
2022-09-15T09:02:58.295Z,100.00
2022-09-15T09:05:41.607Z,100.00
2022-09-15T09:08:35.759Z,100.00
2022-09-15T09:11:14.893Z,100.00
2022-09-15T09:13:48.920Z,100.00
2022-09-15T09:16:35.142Z,100.00
2022-09-15T09:19:34.241Z,100.00
2022-09-15T09:22:06.919Z,100.00
2022-09-15T09:24:40.261Z,100.00
2022-09-15T09:27:14.150Z,100.00
2022-09-15T09:29:49.475Z,100.00
2022-09-15T09:32:21.834Z,99.97
2022-09-15T09:34:59.891Z,100.00
2022-09-15T09:37:28.181Z,94.90
2022-09-15T09:39:55.999Z,92.52
2022-09-15T09:42:30.210Z,93.35
2022-09-15T09:44:58.183Z,99.51
2022-09-15T09:47:29.684Z,95.76
2022-09-15T09:49:57.586Z,91.60
2022-09-15T09:52:36.681Z,91.46
2022-09-15T09:55:17.507Z,90.92
2022-09-15T09:57:46.613Z,87.81
2022-09-15T10:00:32.683Z,98.25
2022-09-15T10:03:11.158Z,90.42
2022-09-15T10:05:38.990Z,93.94
2022-09-15T10:08:06.828Z,91.42
2022-09-15T10:10:35.532Z,92.96
2022-09-15T10:13:05.082Z,96.95
2022-09-15T10:15:36.107Z,94.32
2022-09-15T10:18:04.055Z,89.99
2022-09-15T10:20:35.693Z,87.43
2022-09-15T10:23:06.568Z,91.87
2022-09-15T10:25:55.527Z,87.61
2022-09-15T10:28:27.732Z,92.49
2022-09-15T10:31:04.766Z,94.35
2022-09-15T10:33:35.331Z,91.03
2022-09-15T10:36:06.216Z,92.70
2022-09-15T10:38:44.204Z,96.70
2022-09-15T10:41:28.468Z,93.72
2022-09-15T10:44:30.636Z,96.23
2022-09-15T10:47:09.973Z,93.55
2022-09-15T10:49:54.282Z,97.26
2022-09-15T10:52:32.237Z,100.00
2022-09-15T10:55:13.359Z,100.00
2022-09-15T10:58:03.137Z,100.00
2022-09-15T11:00:39.020Z,100.00
2022-09-15T11:03:57.428Z,100.00
2022-09-15T11:06:31.151Z,100.00
2022-09-15T11:09:15.752Z,100.00
2022-09-15T11:12:03.957Z,100.00
2022-09-15T11:14:45.454Z,100.00
2022-09-15T11:17:36.615Z,100.00
2022-09-15T11:20:29.455Z,100.00
2022-09-15T11:23:03.893Z,100.00
2022-09-15T11:25:36.589Z,100.00
2022-09-15T11:28:13.344Z,100.00
2022-09-15T11:30:47.805Z,100.00
2022-09-15T11:33:22.267Z,100.00
2022-09-15T11:35:55.475Z,100.00
2022-09-15T11:38:31.950Z,100.00
2022-09-15T11:41:12.286Z,100.00
2022-09-15T11:43:46.725Z,100.00
2022-09-15T11:46:19.846Z,100.00
2022-09-15T11:48:58.586Z,100.00
2022-09-15T11:51:28.119Z,100.00
2022-09-15T11:54:07.245Z,100.00
2022-09-15T11:56:41.824Z,100.00
2022-09-15T11:59:21.737Z,100.00
2022-09-15T12:01:56.757Z,100.00
2022-09-15T12:04:31.528Z,100.00
2022-09-15T12:07:05.424Z,100.00
2022-09-15T12:09:33.988Z,99.00
2022-09-15T12:12:06.943Z,99.35
2022-09-15T12:14:38.137Z,98.57
2022-09-15T12:17:08.073Z,100.00
2022-09-15T12:19:47.127Z,97.66
2022-09-15T12:22:23.486Z,92.96
2022-09-15T12:25:01.195Z,93.70
2022-09-15T12:27:29.863Z,93.24
2022-09-15T12:29:59.669Z,91.00
2022-09-15T12:32:29.111Z,94.09
2022-09-15T12:35:01.271Z,95.85
2022-09-15T12:37:36.382Z,93.25
2022-09-15T12:40:06.883Z,94.31
2022-09-15T12:42:37.423Z,94.30
2022-09-15T12:45:08.613Z,94.12
2022-09-15T12:47:40.208Z,96.29
2022-09-15T12:50:26.424Z,97.94
2022-09-15T12:52:57.246Z,97.37
2022-09-15T12:55:27.903Z,97.62
2022-09-15T12:57:58.141Z,93.40
2022-09-15T13:00:42.350Z,95.84
2022-09-15T13:03:29.826Z,94.81
2022-09-15T13:06:17.343Z,92.81
2022-09-15T13:09:05.578Z,92.47
2022-09-15T13:11:40.659Z,92.54
2022-09-15T13:14:22.405Z,89.80
2022-09-15T13:16:56.672Z,91.36
2022-09-15T13:19:30.393Z,90.42
2022-09-15T13:22:06.103Z,85.35
2022-09-15T13:24:51.297Z,84.28
2022-09-15T13:27:22.683Z,86.77
2022-09-15T13:29:53.688Z,86.57
2022-09-15T13:32:43.944Z,85.27
2022-09-15T13:35:29.241Z,81.64
2022-09-15T13:38:31.874Z,82.63
2022-09-15T13:41:17.974Z,85.18
2022-09-15T13:44:36.855Z,85.06
2022-09-15T13:47:16.245Z,83.66
2022-09-15T13:49:52.566Z,84.55
2022-09-15T13:52:34.003Z,89.19
2022-09-15T13:55:21.642Z,86.75
2022-09-15T14:00:48.406Z,86.56
2022-09-15T14:03:23.895Z,88.61
2022-09-15T14:05:51.868Z,84.82
2022-09-15T14:08:23.879Z,85.74
2022-09-15T14:10:56.047Z,83.01
2022-09-15T14:13:27.229Z,82.50
2022-09-15T14:15:59.591Z,80.49
2022-09-15T14:18:27.446Z,84.39
2022-09-15T14:21:00.450Z,82.15
2022-09-15T14:23:28.219Z,82.06
2022-09-15T14:26:00.397Z,81.24
2022-09-15T14:28:33.213Z,81.11
2022-09-15T14:31:01.859Z,80.59
2022-09-15T14:33:37.826Z,81.79
2022-09-15T14:36:14.264Z,82.92
2022-09-15T14:38:42.161Z,78.61
2022-09-15T14:41:20.428Z,83.18
2022-09-15T14:43:48.171Z,83.88
2022-09-15T14:46:19.099Z,83.39
2022-09-15T14:48:47.006Z,82.98
2022-09-15T14:51:24.456Z,84.92
2022-09-15T14:53:55.943Z,81.13
2022-09-15T14:56:29.778Z,83.26
2022-09-15T14:58:59.776Z,81.34
2022-09-15T15:01:36.083Z,78.51
2022-09-15T15:04:10.475Z,84.17
2022-09-15T15:06:43.037Z,82.10
2022-09-15T15:09:21.116Z,82.97
2022-09-15T15:11:52.514Z,80.31
2022-09-15T15:14:20.496Z,77.78
2022-09-15T15:16:53.687Z,81.75
2022-09-15T15:19:33.172Z,83.03
2022-09-15T15:22:21.069Z,80.18
2022-09-15T15:24:50.926Z,83.27
2022-09-15T15:27:44.640Z,79.98
2022-09-15T15:30:43.198Z,83.84
2022-09-15T15:33:19.860Z,80.58
2022-09-15T15:35:48.815Z,82.32
2022-09-15T15:38:19.531Z,80.46
2022-09-15T15:40:47.497Z,78.33
2022-09-15T15:43:24.518Z,81.61
2022-09-15T15:45:57.917Z,81.38
2022-09-15T15:48:26.619Z,82.73
2022-09-15T15:50:55.171Z,84.04
2022-09-15T15:53:23.441Z,83.22
2022-09-15T15:55:51.229Z,85.98
2022-09-15T15:58:19.224Z,86.55
2022-09-15T16:00:49.986Z,86.38
2022-09-15T16:03:19.300Z,86.83
2022-09-15T16:05:49.238Z,87.74
2022-09-15T16:08:25.610Z,87.77
2022-09-15T16:10:55.586Z,88.83
2022-09-15T16:13:24.815Z,89.30
2022-09-15T16:15:56.699Z,90.88
2022-09-15T16:18:24.866Z,88.20
2022-09-15T16:20:52.939Z,90.15
2022-09-15T16:23:22.680Z,94.08
2022-09-15T16:25:55.856Z,91.22
2022-09-15T16:28:23.590Z,93.02
2022-09-15T16:30:51.295Z,92.78
2022-09-15T16:33:21.066Z,89.26
2022-09-15T16:35:51.343Z,90.88
2022-09-15T16:38:20.262Z,91.15
2022-09-15T16:40:48.296Z,91.28
2022-09-15T16:43:18.056Z,87.10
2022-09-15T16:45:46.412Z,88.84
2022-09-15T16:48:14.443Z,90.03
2022-09-15T16:51:16.809Z,92.83
2022-09-15T16:53:32.709Z,89.91
2022-09-15T16:56:00.562Z,86.85
2022-09-15T16:58:28.518Z,90.15
2022-09-15T17:00:56.613Z,90.19
2022-09-15T17:03:26.254Z,92.30
2022-09-15T17:05:57.475Z,92.54
2022-09-15T17:08:27.394Z,93.19
2022-09-15T17:10:56.643Z,91.90
2022-09-15T17:13:29.381Z,90.88
2022-09-15T17:15:59.059Z,93.02
2022-09-15T17:18:27.599Z,90.55
2022-09-15T17:20:57.004Z,92.88
2022-09-15T17:23:27.770Z,91.63
2022-09-15T17:25:58.389Z,89.92
2022-09-15T17:28:28.828Z,89.76
2022-09-15T17:30:58.974Z,89.70
2022-09-15T17:33:27.646Z,89.94
2022-09-15T17:35:57.249Z,90.35
2022-09-15T17:38:25.212Z,89.79
2022-09-15T17:40:55.207Z,90.76
2022-09-15T17:43:25.616Z,87.36
2022-09-15T17:45:54.043Z,86.20
2022-09-15T17:48:22.391Z,84.68
2022-09-15T17:50:50.690Z,85.21
2022-09-15T17:53:22.633Z,86.64
2022-09-15T17:55:51.144Z,87.50
2022-09-15T17:58:19.360Z,85.23
2022-09-15T18:00:48.022Z,85.27
2022-09-15T18:03:21.897Z,85.66
2022-09-15T18:05:49.636Z,84.85
2022-09-15T18:08:17.678Z,85.52
2022-09-15T18:10:47.189Z,84.81
2022-09-15T18:13:17.111Z,84.44
2022-09-15T18:15:45.327Z,83.33
2022-09-15T18:18:14.990Z,83.54
2022-09-15T18:20:43.405Z,84.81
2022-09-15T18:23:16.266Z,86.26
2022-09-15T18:25:47.035Z,85.72
2022-09-15T18:28:15.722Z,88.37
2022-09-15T18:30:46.118Z,87.75
2022-09-15T18:33:15.844Z,89.03
2022-09-15T18:35:44.507Z,86.19
2022-09-15T18:38:13.071Z,84.81
2022-09-15T18:40:46.917Z,87.38
2022-09-15T18:43:14.669Z,86.00
2022-09-15T18:45:43.070Z,88.32
2022-09-15T18:48:13.076Z,88.22
2022-09-15T18:50:41.365Z,86.63
2022-09-15T18:53:09.140Z,85.64
2022-09-15T18:55:37.238Z,85.19
2022-09-15T18:58:06.385Z,86.15
2022-09-15T19:00:34.247Z,86.20
2022-09-15T19:03:03.812Z,85.60
2022-09-15T19:05:32.978Z,86.11
2022-09-15T19:08:00.777Z,87.74
2022-09-15T19:10:29.181Z,90.52
2022-09-15T19:12:57.015Z,88.83
2022-09-15T19:15:26.196Z,89.05
2022-09-15T19:17:54.076Z,92.06
2022-09-15T19:20:21.972Z,91.24
2022-09-15T19:22:51.678Z,90.35
2022-09-15T19:25:20.448Z,90.38
2022-09-15T19:27:48.638Z,90.05
2022-09-15T19:30:16.558Z,90.62
2022-09-15T19:32:45.672Z,90.20
2022-09-15T19:35:13.448Z,90.17
2022-09-15T19:37:42.516Z,91.83
2022-09-15T19:40:12.998Z,91.71
2022-09-15T19:42:42.344Z,89.75
2022-09-15T19:45:11.647Z,90.73
2022-09-15T19:47:40.860Z,90.57
2022-09-15T19:50:12.699Z,90.23
2022-09-15T19:52:40.768Z,88.93
2022-09-15T19:55:09.688Z,89.62
2022-09-15T19:57:39.629Z,90.16
2022-09-15T20:00:10.295Z,89.84
2022-09-15T20:02:38.065Z,90.75
2022-09-15T20:05:06.816Z,91.03
2022-09-15T20:07:36.054Z,91.05
2022-09-15T20:10:03.931Z,93.91
2022-09-15T20:12:31.869Z,92.32
2022-09-15T20:14:59.595Z,91.80
2022-09-15T20:17:27.802Z,91.28
2022-09-15T20:19:55.517Z,91.70
2022-09-15T20:22:23.724Z,92.25
2022-09-15T20:24:52.863Z,93.08
2022-09-15T20:27:20.569Z,93.22
2022-09-15T20:29:48.372Z,93.23
2022-09-15T20:32:16.107Z,92.81
2022-09-15T20:34:44.055Z,94.13
2022-09-15T20:37:11.797Z,95.26
2022-09-15T20:39:39.668Z,96.45
2022-09-15T20:42:08.894Z,96.28
2022-09-15T20:44:36.588Z,96.23
2022-09-15T20:47:04.551Z,94.96
2022-09-15T20:49:32.262Z,96.54
2022-09-15T20:52:00.102Z,94.58
2022-09-15T20:54:27.875Z,94.59
2022-09-15T20:56:55.684Z,95.14
2022-09-15T20:59:25.950Z,95.43
2022-09-15T21:01:53.773Z,95.28
2022-09-15T21:04:21.684Z,97.69
2022-09-15T21:06:49.480Z,97.15
2022-09-15T21:09:17.283Z,98.28
2022-09-15T21:11:45.125Z,98.29
2022-09-15T21:14:14.284Z,97.54
2022-09-15T21:16:43.674Z,98.07
2022-09-15T21:19:12.582Z,99.85
2022-09-15T21:21:40.491Z,99.42
2022-09-15T21:24:09.976Z,99.71
2022-09-15T21:27:01.004Z,100.00
2022-09-15T21:29:29.391Z,100.00
2022-09-15T21:31:58.770Z,100.00
2022-09-15T21:34:26.906Z,100.00
2022-09-15T21:36:54.626Z,100.00
2022-09-15T21:39:22.504Z,100.00
2022-09-15T21:41:50.732Z,100.00
2022-09-15T21:44:18.650Z,100.00
2022-09-15T21:46:47.259Z,100.00
2022-09-15T21:49:18.172Z,100.00
2022-09-15T21:51:45.910Z,100.00
2022-09-15T21:54:13.768Z,100.00
2022-09-15T21:56:41.650Z,100.00
2022-09-15T21:59:11.326Z,100.00
2022-09-15T22:01:41.006Z,100.00
2022-09-15T22:04:10.539Z,100.00
2022-09-15T22:06:42.126Z,100.00
2022-09-15T22:09:12.134Z,100.00
2022-09-15T22:11:40.517Z,100.00
2022-09-15T22:14:09.475Z,100.00
2022-09-15T22:16:38.795Z,100.00
2022-09-15T22:19:07.917Z,100.00
2022-09-15T22:21:37.024Z,100.00
2022-09-15T22:24:08.066Z,100.00
2022-09-15T22:26:37.935Z,100.00
2022-09-15T22:29:06.281Z,100.00
2022-09-15T22:31:34.663Z,100.00
2022-09-15T22:34:02.754Z,100.00
2022-09-15T22:36:31.954Z,100.00
2022-09-15T22:39:04.579Z,100.00
2022-09-15T22:41:35.462Z,100.00
2022-09-15T22:44:03.792Z,100.00
2022-09-15T22:46:32.353Z,100.00
2022-09-15T22:49:00.237Z,100.00
2022-09-15T22:51:28.234Z,100.00
2022-09-15T22:53:57.052Z,100.00
2022-09-15T22:56:26.624Z,100.00
2022-09-15T22:58:57.396Z,100.00
2022-09-15T23:01:27.769Z,100.00
2022-09-15T23:03:57.637Z,100.00
2022-09-15T23:06:27.380Z,100.00
2022-09-15T23:08:56.415Z,100.00
2022-09-15T23:11:24.878Z,100.00
2022-09-15T23:13:53.483Z,100.00
2022-09-15T23:16:24.246Z,100.00
2022-09-15T23:18:52.773Z,100.00
2022-09-15T23:21:21.434Z,100.00
2022-09-15T23:23:49.864Z,100.00
2022-09-15T23:26:19.172Z,100.00
2022-09-15T23:28:47.372Z,100.00
2022-09-15T23:31:15.369Z,100.00
2022-09-15T23:33:44.953Z,100.00
2022-09-15T23:36:15.165Z,100.00
2022-09-15T23:38:44.612Z,100.00
2022-09-15T23:41:14.021Z,100.00
2022-09-15T23:43:42.329Z,100.00
2022-09-15T23:46:10.813Z,100.00
2022-09-15T23:48:39.289Z,100.00
2022-09-15T23:51:08.843Z,100.00
2022-09-15T23:53:37.191Z,100.00
2022-09-15T23:56:05.283Z,100.00
2022-09-15T23:58:33.024Z,100.00
